sensor_id;sensor_type;location;lat;lon;timestamp;pressure;altitude;pressure_sealevel;temperature;humidity
3082;BME280;1551;51.046;7.010;2022-11-20T00:02:00;100525.66;;;6.27;nan
3082;BME280;1551;51.046;7.010;2022-11-20T00:04:49;100525.66;;;6.23;nan
3082;BME280;1551;51.046;7.010;2022-11-20T00:07:38;100521.41;;;6.24;nan
3082;BME280;1551;51.046;7.010;2022-11-20T00:10:27;100519.72;;;6.23;nan
3082;BME280;1551;51.046;7.010;2022-11-20T00:13:16;100527.31;;;6.21;nan
3082;BME280;1551;51.046;7.010;2022-11-20T00:16:07;100525.66;;;6.23;nan
3082;BME280;1551;51.046;7.010;2022-11-20T00:18:55;100523.13;;;6.23;nan
3082;BME280;1551;51.046;7.010;2022-11-20T00:21:44;100523.97;;;6.22;nan
3082;BME280;1551;51.046;7.010;2022-11-20T00:24:33;100519.66;;;6.11;nan
3082;BME280;1551;51.046;7.010;2022-11-20T00:27:22;100527.22;;;6.05;nan
3082;BME280;1551;51.046;7.010;2022-11-20T00:30:11;100524.69;;;6.05;nan
3082;BME280;1551;51.046;7.010;2022-11-20T00:33:00;100518.81;;;6.10;nan
3082;BME280;1551;51.046;7.010;2022-11-20T00:35:49;100522.22;;;6.09;nan
3082;BME280;1551;51.046;7.010;2022-11-20T00:38:38;100526.38;;;6.00;nan
3082;BME280;1551;51.046;7.010;2022-11-20T00:41:29;100528.84;;;5.91;nan
3082;BME280;1551;51.046;7.010;2022-11-20T00:44:18;100530.53;;;5.87;nan
3082;BME280;1551;51.046;7.010;2022-11-20T00:47:07;100530.59;;;5.99;nan
3082;BME280;1551;51.046;7.010;2022-11-20T00:49:56;100526.44;;;6.10;nan
3082;BME280;1551;51.046;7.010;2022-11-20T00:52:44;100528.13;;;6.11;nan
3082;BME280;1551;51.046;7.010;2022-11-20T00:55:33;100523.94;;;6.16;nan
3082;BME280;1551;51.046;7.010;2022-11-20T00:58:23;100520.53;;;6.11;nan
3082;BME280;1551;51.046;7.010;2022-11-20T01:01:15;100475.41;;;5.77;nan
3082;BME280;1551;51.046;7.010;2022-11-20T01:04:04;100519.59;;;5.99;nan
3082;BME280;1551;51.046;7.010;2022-11-20T01:06:53;100516.22;;;6.03;nan
3082;BME280;1551;51.046;7.010;2022-11-20T01:09:42;100511.16;;;6.07;nan
3082;BME280;1551;51.046;7.010;2022-11-20T01:12:31;100518.84;;;6.13;nan
3082;BME280;1551;51.046;7.010;2022-11-20T01:15:20;100514.56;;;6.12;nan
3082;BME280;1551;51.046;7.010;2022-11-20T01:18:09;100512.88;;;6.07;nan
3082;BME280;1551;51.046;7.010;2022-11-20T01:21:07;100512.88;;;6.07;nan
3082;BME280;1551;51.046;7.010;2022-11-20T01:23:57;100509.50;;;6.12;nan
3082;BME280;1551;51.046;7.010;2022-11-20T01:26:50;100508.63;;;6.04;nan
3082;BME280;1551;51.046;7.010;2022-11-20T01:29:40;100508.56;;;5.98;nan
3082;BME280;1551;51.046;7.010;2022-11-20T01:32:29;100504.34;;;5.97;nan
3082;BME280;1551;51.046;7.010;2022-11-20T01:35:18;100511.16;;;6.01;nan
3082;BME280;1551;51.046;7.010;2022-11-20T01:38:07;100512.81;;;6.01;nan
3082;BME280;1551;51.046;7.010;2022-11-20T01:40:56;100509.47;;;6.08;nan
3082;BME280;1551;51.046;7.010;2022-11-20T01:43:44;100503.56;;;6.10;nan
3082;BME280;1551;51.046;7.010;2022-11-20T01:46:38;100500.19;;;6.07;nan
3082;BME280;1551;51.046;7.010;2022-11-20T01:49:34;100505.16;;;5.92;nan
3082;BME280;1551;51.046;7.010;2022-11-20T01:52:39;100501.75;;;5.85;nan
3082;BME280;1551;51.046;7.010;2022-11-20T01:55:31;100498.34;;;5.86;nan
3082;BME280;1551;51.046;7.010;2022-11-20T01:58:27;100488.03;;;5.62;nan
3082;BME280;1551;51.046;7.010;2022-11-20T02:01:18;100497.38;;;5.72;nan
3082;BME280;1551;51.046;7.010;2022-11-20T02:04:08;100488.16;;;5.83;nan
3082;BME280;1551;51.046;7.010;2022-11-20T02:07:00;100493.28;;;5.88;nan
3082;BME280;1551;51.046;7.010;2022-11-20T02:09:50;100491.53;;;5.84;nan
3082;BME280;1551;51.046;7.010;2022-11-20T02:12:39;100490.75;;;5.89;nan
3082;BME280;1551;51.046;7.010;2022-11-20T02:15:47;100490.81;;;5.97;nan
3082;BME280;1551;51.046;7.010;2022-11-20T02:18:36;100490.81;;;6.01;nan
3082;BME280;1551;51.046;7.010;2022-11-20T02:24:44;100485.75;;;6.01;nan
3082;BME280;1551;51.046;7.010;2022-11-20T02:27:35;100485.75;;;6.00;nan
3082;BME280;1551;51.046;7.010;2022-11-20T02:30:25;100473.03;;;5.95;nan
3082;BME280;1551;51.046;7.010;2022-11-20T02:33:14;100477.25;;;5.98;nan
3082;BME280;1551;51.046;7.010;2022-11-20T02:36:03;100468.78;;;5.99;nan
3082;BME280;1551;51.046;7.010;2022-11-20T02:38:52;100468.78;;;5.93;nan
3082;BME280;1551;51.046;7.010;2022-11-20T02:41:42;100457.66;;;5.80;nan
3082;BME280;1551;51.046;7.010;2022-11-20T02:44:31;100462.75;;;5.80;nan
3082;BME280;1551;51.046;7.010;2022-11-20T02:47:20;100461.13;;;5.85;nan
3082;BME280;1551;51.046;7.010;2022-11-20T02:50:09;100451.75;;;5.81;nan
3082;BME280;1551;51.046;7.010;2022-11-20T02:52:59;100466.13;;;5.84;nan
3082;BME280;1551;51.046;7.010;2022-11-20T02:55:48;100454.28;;;5.78;nan
3082;BME280;1551;51.046;7.010;2022-11-20T02:58:36;100451.72;;;5.80;nan
3082;BME280;1551;51.046;7.010;2022-11-20T03:01:25;100445.81;;;5.81;nan
3082;BME280;1551;51.046;7.010;2022-11-20T03:04:14;100443.25;;;5.78;nan
3082;BME280;1551;51.046;7.010;2022-11-20T03:07:03;100438.19;;;5.78;nan
3082;BME280;1551;51.046;7.010;2022-11-20T03:09:53;100430.53;;;5.73;nan
3082;BME280;1551;51.046;7.010;2022-11-20T03:12:42;100433.94;;;5.80;nan
3082;BME280;1551;51.046;7.010;2022-11-20T03:15:31;100436.50;;;5.78;nan
3082;BME280;1551;51.046;7.010;2022-11-20T03:18:20;100435.59;;;5.70;nan
3082;BME280;1551;51.046;7.010;2022-11-20T03:21:10;100442.34;;;5.68;nan
3082;BME280;1551;51.046;7.010;2022-11-20T03:24:00;100444.00;;;5.58;nan
3082;BME280;1551;51.046;7.010;2022-11-20T03:26:49;100452.44;;;5.56;nan
3082;BME280;1551;51.046;7.010;2022-11-20T03:29:38;100458.31;;;5.46;nan
3082;BME280;1551;51.046;7.010;2022-11-20T03:32:27;100453.22;;;5.49;nan
3082;BME280;1551;51.046;7.010;2022-11-20T03:35:16;100451.66;;;5.68;nan
3082;BME280;1551;51.046;7.010;2022-11-20T03:38:04;100449.06;;;5.58;nan
3082;BME280;1551;51.046;7.010;2022-11-20T03:40:58;100438.03;;;5.53;nan
3082;BME280;1551;51.046;7.010;2022-11-20T03:43:53;100454.13;;;5.54;nan
3082;BME280;1551;51.046;7.010;2022-11-20T03:46:42;100453.31;;;5.60;nan
3082;BME280;1551;51.046;7.010;2022-11-20T03:49:31;100456.72;;;5.60;nan
3082;BME280;1551;51.046;7.010;2022-11-20T03:52:20;100439.78;;;5.65;nan
3082;BME280;1551;51.046;7.010;2022-11-20T03:55:09;100442.34;;;5.64;nan
3082;BME280;1551;51.046;7.010;2022-11-20T03:57:58;100441.47;;;5.62;nan
3082;BME280;1551;51.046;7.010;2022-11-20T04:00:47;100440.59;;;5.56;nan
3082;BME280;1551;51.046;7.010;2022-11-20T04:03:37;100432.97;;;5.52;nan
3082;BME280;1551;51.046;7.010;2022-11-20T04:06:29;100438.06;;;5.58;nan
3082;BME280;1551;51.046;7.010;2022-11-20T04:09:18;100444.00;;;5.58;nan
3082;BME280;1551;51.046;7.010;2022-11-20T04:12:07;100441.47;;;5.63;nan
3082;BME280;1551;51.046;7.010;2022-11-20T04:14:56;100436.41;;;5.60;nan
3082;BME280;1551;51.046;7.010;2022-11-20T04:17:45;100425.34;;;5.50;nan
3082;BME280;1551;51.046;7.010;2022-11-20T04:20:34;100427.84;;;5.41;nan
3082;BME280;1551;51.046;7.010;2022-11-20T04:23:24;100428.66;;;5.40;nan
3082;BME280;1551;51.046;7.010;2022-11-20T04:26:13;100424.41;;;5.38;nan
3082;BME280;1551;51.046;7.010;2022-11-20T04:29:02;100415.13;;;5.38;nan
3082;BME280;1551;51.046;7.010;2022-11-20T04:31:52;100415.09;;;5.35;nan
3082;BME280;1551;51.046;7.010;2022-11-20T04:34:41;100431.13;;;5.31;nan
3082;BME280;1551;51.046;7.010;2022-11-20T04:37:30;100444.66;;;5.29;nan
3082;BME280;1551;51.046;7.010;2022-11-20T04:40:19;100443.00;;;5.35;nan
3082;BME280;1551;51.046;7.010;2022-11-20T04:43:08;100433.84;;;5.57;nan
3082;BME280;1551;51.046;7.010;2022-11-20T04:45:58;100434.75;;;5.71;nan
3082;BME280;1551;51.046;7.010;2022-11-20T04:48:47;100429.66;;;5.68;nan
3082;BME280;1551;51.046;7.010;2022-11-20T04:51:36;100440.78;;;5.87;nan
3082;BME280;1551;51.046;7.010;2022-11-20T04:54:25;100439.97;;;5.91;nan
3082;BME280;1551;51.046;7.010;2022-11-20T04:57:14;100439.13;;;5.90;nan
3082;BME280;1551;51.046;7.010;2022-11-20T05:00:04;100443.38;;;5.93;nan
3082;BME280;1551;51.046;7.010;2022-11-20T05:02:53;100446.75;;;5.98;nan
3082;BME280;1551;51.046;7.010;2022-11-20T05:05:42;100444.25;;;5.99;nan
3082;BME280;1551;51.046;7.010;2022-11-20T05:08:31;100445.00;;;5.86;nan
3082;BME280;1551;51.046;7.010;2022-11-20T05:11:21;100455.19;;;5.85;nan
3082;BME280;1551;51.046;7.010;2022-11-20T05:14:10;100446.59;;;5.71;nan
3082;BME280;1551;51.046;7.010;2022-11-20T05:16:59;100449.13;;;5.72;nan
3082;BME280;1551;51.046;7.010;2022-11-20T05:19:48;100448.38;;;5.81;nan
3082;BME280;1551;51.046;7.010;2022-11-20T05:22:37;100449.34;;;5.99;nan
3082;BME280;1551;51.046;7.010;2022-11-20T05:25:26;100449.34;;;6.04;nan
3082;BME280;1551;51.046;7.010;2022-11-20T05:28:15;100444.19;;;5.87;nan
3082;BME280;1551;51.046;7.010;2022-11-20T05:31:08;100450.91;;;5.82;nan
3082;BME280;1551;51.046;7.010;2022-11-20T05:33:57;100443.38;;;5.94;nan
3082;BME280;1551;51.046;7.010;2022-11-20T05:36:46;100441.72;;;6.04;nan
3082;BME280;1551;51.046;7.010;2022-11-20T05:39:35;100439.22;;;6.11;nan
3082;BME280;1551;51.046;7.010;2022-11-20T05:42:24;100437.50;;;6.04;nan
3082;BME280;1551;51.046;7.010;2022-11-20T05:45:19;100432.41;;;6.03;nan
3082;BME280;1551;51.046;7.010;2022-11-20T05:48:08;100430.72;;;6.05;nan
3082;BME280;1551;51.046;7.010;2022-11-20T05:50:58;100434.94;;;6.01;nan
3082;BME280;1551;51.046;7.010;2022-11-20T05:53:47;100434.06;;;5.90;nan
3082;BME280;1551;51.046;7.010;2022-11-20T05:56:36;100434.78;;;5.77;nan
3082;BME280;1551;51.046;7.010;2022-11-20T05:59:25;100434.81;;;5.80;nan
3082;BME280;1551;51.046;7.010;2022-11-20T06:02:14;100441.56;;;5.77;nan
3082;BME280;1551;51.046;7.010;2022-11-20T06:05:03;100439.09;;;5.87;nan
3082;BME280;1551;51.046;7.010;2022-11-20T06:07:52;100444.22;;;5.95;nan
3082;BME280;1551;51.046;7.010;2022-11-20T06:10:41;100434.06;;;5.98;nan
3082;BME280;1551;51.046;7.010;2022-11-20T06:13:30;100441.69;;;5.96;nan
3082;BME280;1551;51.046;7.010;2022-11-20T06:16:19;100438.31;;;5.93;nan
3082;BME280;1551;51.046;7.010;2022-11-20T06:19:09;100424.72;;;5.85;nan
3082;BME280;1551;51.046;7.010;2022-11-20T06:21:58;100436.50;;;5.78;nan
3082;BME280;1551;51.046;7.010;2022-11-20T06:24:47;100437.34;;;5.74;nan
3082;BME280;1551;51.046;7.010;2022-11-20T06:27:36;100432.19;;;5.65;nan
3082;BME280;1551;51.046;7.010;2022-11-20T06:30:25;100425.38;;;5.55;nan
3082;BME280;1551;51.046;7.010;2022-11-20T06:33:14;100429.59;;;5.53;nan
3082;BME280;1551;51.046;7.010;2022-11-20T06:36:03;100421.06;;;5.46;nan
3082;BME280;1551;51.046;7.010;2022-11-20T06:38:52;100432.06;;;5.41;nan
3082;BME280;1551;51.046;7.010;2022-11-20T06:41:41;100432.00;;;5.32;nan
3082;BME280;1551;51.046;7.010;2022-11-20T06:44:30;100434.50;;;5.29;nan
3082;BME280;1551;51.046;7.010;2022-11-20T06:47:19;100442.88;;;5.17;nan
3082;BME280;1551;51.046;7.010;2022-11-20T06:50:08;100442.91;;;5.22;nan
3082;BME280;1551;51.046;7.010;2022-11-20T06:53:00;100449.56;;;5.08;nan
3082;BME280;1551;51.046;7.010;2022-11-20T06:55:51;100453.69;;;4.98;nan
3082;BME280;1551;51.046;7.010;2022-11-20T06:58:40;100452.84;;;4.98;nan
3082;BME280;1551;51.046;7.010;2022-11-20T07:01:29;100447.72;;;4.93;nan
3082;BME280;1551;51.046;7.010;2022-11-20T07:04:18;100450.31;;;4.95;nan
3082;BME280;1551;51.046;7.010;2022-11-20T07:07:08;100451.13;;;4.94;nan
3082;BME280;1551;51.046;7.010;2022-11-20T07:09:57;100448.59;;;4.94;nan
3082;BME280;1551;51.046;7.010;2022-11-20T07:12:50;100460.28;;;4.81;nan
3082;BME280;1551;51.046;7.010;2022-11-20T07:15:39;100457.59;;;4.64;nan
3082;BME280;1551;51.046;7.010;2022-11-20T07:18:28;100461.03;;;4.69;nan
3082;BME280;1551;51.046;7.010;2022-11-20T07:21:17;100469.63;;;4.82;nan
3082;BME280;1551;51.046;7.010;2022-11-20T07:24:07;100473.03;;;4.88;nan
3082;BME280;1551;51.046;7.010;2022-11-20T07:26:55;100484.94;;;4.97;nan
3082;BME280;1551;51.046;7.010;2022-11-20T07:29:45;100472.34;;;5.05;nan
3082;BME280;1551;51.046;7.010;2022-11-20T07:32:33;100481.78;;;5.18;nan
3082;BME280;1551;51.046;7.010;2022-11-20T07:35:24;100464.13;;;5.31;nan
3082;BME280;1551;51.046;7.010;2022-11-20T07:38:13;100454.78;;;5.29;nan
3082;BME280;1551;51.046;7.010;2022-11-20T07:41:02;100486.06;;;5.28;nan
3082;BME280;1551;51.046;7.010;2022-11-20T07:43:51;100480.19;;;5.32;nan
3082;BME280;1551;51.046;7.010;2022-11-20T07:46:40;100483.66;;;5.41;nan
3082;BME280;1551;51.046;7.010;2022-11-20T07:49:28;100468.50;;;5.50;nan
3082;BME280;1551;51.046;7.010;2022-11-20T07:52:17;100466.81;;;5.52;nan
3082;BME280;1551;51.046;7.010;2022-11-20T07:55:07;100460.06;;;5.57;nan
3082;BME280;1551;51.046;7.010;2022-11-20T07:57:57;100461.84;;;5.69;nan
3082;BME280;1551;51.046;7.010;2022-11-20T08:00:46;100444.06;;;5.69;nan
3082;BME280;1551;51.046;7.010;2022-11-20T08:03:35;100445.75;;;5.70;nan
3082;BME280;1551;51.046;7.010;2022-11-20T08:06:27;100455.13;;;5.82;nan
3082;BME280;1551;51.046;7.010;2022-11-20T08:09:16;100455.16;;;5.83;nan
3082;BME280;1551;51.046;7.010;2022-11-20T08:12:06;100453.44;;;5.82;nan
3082;BME280;1551;51.046;7.010;2022-11-20T08:15:13;100445.03;;;5.89;nan
3082;BME280;1551;51.046;7.010;2022-11-20T08:18:10;100446.72;;;5.86;nan
3082;BME280;1551;51.046;7.010;2022-11-20T08:21:03;100453.50;;;5.85;nan
3082;BME280;1551;51.046;7.010;2022-11-20T08:23:53;100448.41;;;5.85;nan
3082;BME280;1551;51.046;7.010;2022-11-20T08:26:42;100454.31;;;5.84;nan
3082;BME280;1551;51.046;7.010;2022-11-20T08:29:31;100451.81;;;5.87;nan
3082;BME280;1551;51.046;7.010;2022-11-20T08:32:20;100456.06;;;5.94;nan
3082;BME280;1551;51.046;7.010;2022-11-20T08:35:09;100466.25;;;5.99;nan
3082;BME280;1551;51.046;7.010;2022-11-20T08:37:58;100460.31;;;5.98;nan
3082;BME280;1551;51.046;7.010;2022-11-20T08:40:47;100471.38;;;6.06;nan
3082;BME280;1551;51.046;7.010;2022-11-20T08:43:59;100468.84;;;6.09;nan
3082;BME280;1551;51.046;7.010;2022-11-20T08:46:48;100466.31;;;6.09;nan
3082;BME280;1551;51.046;7.010;2022-11-20T08:49:37;100464.63;;;6.13;nan
3082;BME280;1551;51.046;7.010;2022-11-20T08:52:26;100474.78;;;6.11;nan
3082;BME280;1551;51.046;7.010;2022-11-20T08:55:15;100465.53;;;6.32;nan
3082;BME280;1551;51.046;7.010;2022-11-20T08:58:05;100467.25;;;6.33;nan
3082;BME280;1551;51.046;7.010;2022-11-20T09:00:54;100464.69;;;6.23;nan
3082;BME280;1551;51.046;7.010;2022-11-20T09:03:43;100468.91;;;6.26;nan
3082;BME280;1551;51.046;7.010;2022-11-20T09:06:32;100463.00;;;6.26;nan
3082;BME280;1551;51.046;7.010;2022-11-20T09:09:21;100470.56;;;6.18;nan
3082;BME280;1551;51.046;7.010;2022-11-20T09:12:10;100462.97;;;6.22;nan
3082;BME280;1551;51.046;7.010;2022-11-20T09:14:59;100472.28;;;6.22;nan
3082;BME280;1551;51.046;7.010;2022-11-20T09:17:52;100465.53;;;6.27;nan
3082;BME280;1551;51.046;7.010;2022-11-20T09:20:42;100463.88;;;6.43;nan
3082;BME280;1551;51.046;7.010;2022-11-20T09:23:32;100464.78;;;6.55;nan
3082;BME280;1551;51.046;7.010;2022-11-20T09:26:22;100449.50;;;6.57;nan
3082;BME280;1551;51.046;7.010;2022-11-20T09:29:11;100452.06;;;6.61;nan
3082;BME280;1551;51.046;7.010;2022-11-20T09:32:00;100456.31;;;6.68;nan
3082;BME280;1551;51.046;7.010;2022-11-20T09:34:49;100451.25;;;6.65;nan
3082;BME280;1551;51.046;7.010;2022-11-20T09:37:38;100446.16;;;6.74;nan
3082;BME280;1551;51.046;7.010;2022-11-20T09:40:28;100447.88;;;6.87;nan
3082;BME280;1551;51.046;7.010;2022-11-20T09:52:39;100438.41;;;7.94;nan
3082;BME280;1551;51.046;7.010;2022-11-20T09:55:35;100427.41;;;7.77;nan
3082;BME280;1551;51.046;7.010;2022-11-20T09:58:35;100429.97;;;7.64;nan
3082;BME280;1551;51.046;7.010;2022-11-20T10:01:31;100429.97;;;7.75;nan
3082;BME280;1551;51.046;7.010;2022-11-20T10:04:22;100420.56;;;7.88;nan
3082;BME280;1551;51.046;7.010;2022-11-20T10:07:43;100435.78;;;8.13;nan
3082;BME280;1551;51.046;7.010;2022-11-20T10:10:40;100435.78;;;8.09;nan
3082;BME280;1551;51.046;7.010;2022-11-20T10:16:43;100429.00;;;8.05;nan
3082;BME280;1551;51.046;7.010;2022-11-20T10:32:03;100408.84;;;7.38;nan
3082;BME280;1551;51.046;7.010;2022-11-20T10:35:17;100405.41;;;7.48;nan
3082;BME280;1551;51.046;7.010;2022-11-20T10:38:14;100395.28;;;7.29;nan
3082;BME280;1551;51.046;7.010;2022-11-20T10:41:06;100398.66;;;7.20;nan
3082;BME280;1551;51.046;7.010;2022-11-20T10:44:21;100391.91;;;6.95;nan
3082;BME280;1551;51.046;7.010;2022-11-20T10:47:30;100387.66;;;6.97;nan
3082;BME280;1551;51.046;7.010;2022-11-20T10:50:20;100379.19;;;7.01;nan
3082;BME280;1551;51.046;7.010;2022-11-20T10:56:30;100380.00;;;7.29;nan
3082;BME280;1551;51.046;7.010;2022-11-20T10:59:35;100371.47;;;7.43;nan
3082;BME280;1551;51.046;7.010;2022-11-20T11:02:34;100358.72;;;7.55;nan
3082;BME280;1551;51.046;7.010;2022-11-20T11:05:41;100356.16;;;7.66;nan
3082;BME280;1551;51.046;7.010;2022-11-20T11:08:37;100352.75;;;7.62;nan
3082;BME280;1551;51.046;7.010;2022-11-20T11:11:32;100356.13;;;7.64;nan
3082;BME280;1551;51.046;7.010;2022-11-20T11:14:22;100353.59;;;7.63;nan
3082;BME280;1551;51.046;7.010;2022-11-20T11:17:27;100331.59;;;7.39;nan
3082;BME280;1551;51.046;7.010;2022-11-20T11:20:19;100332.44;;;7.46;nan
3082;BME280;1551;51.046;7.010;2022-11-20T11:23:34;100324.81;;;7.43;nan
3082;BME280;1551;51.046;7.010;2022-11-20T11:26:23;100326.56;;;7.33;nan
3082;BME280;1551;51.046;7.010;2022-11-20T11:29:17;100324.84;;;7.32;nan
3082;BME280;1551;51.046;7.010;2022-11-20T11:32:27;100316.31;;;7.44;nan
3082;BME280;1551;51.046;7.010;2022-11-20T11:35:25;100318.88;;;7.47;nan
3082;BME280;1551;51.046;7.010;2022-11-20T11:38:43;100311.22;;;7.47;nan
3082;BME280;1551;51.046;7.010;2022-11-20T11:41:34;100313.78;;;7.44;nan
3082;BME280;1551;51.046;7.010;2022-11-20T11:44:28;100299.38;;;7.43;nan
3082;BME280;1551;51.046;7.010;2022-11-20T11:47:46;100298.50;;;7.39;nan
3082;BME280;1551;51.046;7.010;2022-11-20T11:50:36;100294.25;;;7.47;nan
3082;BME280;1551;51.046;7.010;2022-11-20T11:53:26;100284.00;;;7.61;nan
3082;BME280;1551;51.046;7.010;2022-11-20T11:56:16;100289.06;;;7.66;nan
3082;BME280;1551;51.046;7.010;2022-11-20T11:59:09;100282.25;;;7.74;nan
3082;BME280;1551;51.046;7.010;2022-11-20T12:02:04;100283.06;;;7.79;nan
3082;BME280;1551;51.046;7.010;2022-11-20T12:08:20;100265.28;;;7.68;nan
3082;BME280;1551;51.046;7.010;2022-11-20T12:14:31;100264.44;;;7.74;nan
3082;BME280;1551;51.046;7.010;2022-11-20T12:17:22;100257.66;;;7.71;nan
3082;BME280;1551;51.046;7.010;2022-11-20T12:20:13;100254.31;;;7.55;nan
3082;BME280;1551;51.046;7.010;2022-11-20T12:23:32;100252.69;;;7.36;nan
3082;BME280;1551;51.046;7.010;2022-11-20T12:26:47;100236.59;;;7.40;nan
3082;BME280;1551;51.046;7.010;2022-11-20T12:29:59;100250.84;;;7.70;nan
3082;BME280;1551;51.046;7.010;2022-11-20T12:36:27;100233.81;;;7.83;nan
3082;BME280;1551;51.046;7.010;2022-11-20T12:39:29;100239.75;;;7.79;nan
3082;BME280;1551;51.046;7.010;2022-11-20T12:46:03;100231.38;;;7.63;nan
3082;BME280;1551;51.046;7.010;2022-11-20T12:49:25;100228.03;;;7.50;nan
3082;BME280;1551;51.046;7.010;2022-11-20T12:52:38;100224.59;;;7.60;nan
3082;BME280;1551;51.046;7.010;2022-11-20T13:01:30;100201.78;;;7.39;nan
3082;BME280;1551;51.046;7.010;2022-11-20T13:04:39;100191.53;;;7.51;nan
3082;BME280;1551;51.046;7.010;2022-11-20T13:07:33;100179.56;;;7.62;nan
3082;BME280;1551;51.046;7.010;2022-11-20T13:10:34;100173.56;;;7.74;nan
3082;BME280;1551;51.046;7.010;2022-11-20T13:13:45;100170.88;;;7.91;nan
3082;BME280;1551;51.046;7.010;2022-11-20T13:16:58;100164.00;;;8.03;nan
3082;BME280;1551;51.046;7.010;2022-11-20T13:19:55;100157.06;;;8.19;nan
3082;BME280;1551;51.046;7.010;2022-11-20T13:22:52;100150.25;;;8.27;nan
3082;BME280;1551;51.046;7.010;2022-11-20T13:25:43;100146.72;;;8.39;nan
3082;BME280;1551;51.046;7.010;2022-11-20T13:28:32;100144.31;;;8.20;nan
3082;BME280;1551;51.046;7.010;2022-11-20T13:31:30;100141.84;;;8.13;nan
3082;BME280;1551;51.046;7.010;2022-11-20T13:34:25;100135.09;;;8.07;nan
3082;BME280;1551;51.046;7.010;2022-11-20T13:37:27;100130.84;;;8.05;nan
3082;BME280;1551;51.046;7.010;2022-11-20T13:40:21;100130.03;;;8.03;nan
3082;BME280;1551;51.046;7.010;2022-11-20T13:46:08;100121.44;;;8.13;nan
3082;BME280;1551;51.046;7.010;2022-11-20T13:48:59;100114.63;;;8.15;nan
3082;BME280;1551;51.046;7.010;2022-11-20T13:52:26;100101.03;;;8.14;nan
3082;BME280;1551;51.046;7.010;2022-11-20T13:58:31;100092.63;;;8.08;nan
3082;BME280;1551;51.046;7.010;2022-11-20T14:01:27;100087.41;;;8.17;nan
3082;BME280;1551;51.046;7.010;2022-11-20T14:04:25;100090.75;;;8.25;nan
3082;BME280;1551;51.046;7.010;2022-11-20T14:07:17;100083.97;;;8.21;nan
3082;BME280;1551;51.046;7.010;2022-11-20T14:10:19;100072.16;;;8.15;nan
3082;BME280;1551;51.046;7.010;2022-11-20T14:13:19;100069.56;;;8.18;nan
3082;BME280;1551;51.046;7.010;2022-11-20T14:16:09;100065.31;;;8.20;nan
3082;BME280;1551;51.046;7.010;2022-11-20T14:19:22;100055.16;;;8.14;nan
3082;BME280;1551;51.046;7.010;2022-11-20T14:22:26;100056.22;;;7.97;nan
3082;BME280;1551;51.046;7.010;2022-11-20T14:28:04;100046.72;;;8.11;nan
3082;BME280;1551;51.046;7.010;2022-11-20T14:30:53;100044.13;;;8.14;nan
3082;BME280;1551;51.046;7.010;2022-11-20T14:33:43;100033.88;;;8.20;nan
3082;BME280;1551;51.046;7.010;2022-11-20T14:36:32;100024.53;;;8.19;nan
3082;BME280;1551;51.046;7.010;2022-11-20T14:39:22;100014.38;;;8.17;nan
3082;BME280;1551;51.046;7.010;2022-11-20T14:42:22;100017.75;;;8.16;nan
3082;BME280;1551;51.046;7.010;2022-11-20T14:45:13;100018.72;;;8.08;nan
3082;BME280;1551;51.046;7.010;2022-11-20T14:48:02;100015.31;;;8.07;nan
3082;BME280;1551;51.046;7.010;2022-11-20T14:50:52;100007.63;;;8.09;nan
3082;BME280;1551;51.046;7.010;2022-11-20T14:53:41;100005.94;;;8.11;nan
3082;BME280;1551;51.046;7.010;2022-11-20T14:56:30;100007.63;;;8.12;nan
3082;BME280;1551;51.046;7.010;2022-11-20T14:59:23;99995.75;;;8.09;nan
3082;BME280;1551;51.046;7.010;2022-11-20T15:02:13;99989.06;;;8.01;nan
3082;BME280;1551;51.046;7.010;2022-11-20T15:05:02;99993.31;;;8.00;nan
3082;BME280;1551;51.046;7.010;2022-11-20T15:08:06;99988.16;;;8.05;nan
3082;BME280;1551;51.046;7.010;2022-11-20T15:10:57;99982.25;;;8.03;nan
3082;BME280;1551;51.046;7.010;2022-11-20T15:13:46;99977.06;;;8.10;nan
3082;BME280;1551;51.046;7.010;2022-11-20T15:16:35;99977.00;;;8.15;nan
3082;BME280;1551;51.046;7.010;2022-11-20T15:19:25;99971.97;;;8.09;nan
3082;BME280;1551;51.046;7.010;2022-11-20T15:22:15;99968.72;;;7.99;nan
3082;BME280;1551;51.046;7.010;2022-11-20T15:25:12;99969.41;;;8.09;nan
3082;BME280;1551;51.046;7.010;2022-11-20T15:28:01;99966.06;;;8.08;nan
3082;BME280;1551;51.046;7.010;2022-11-20T15:30:50;99964.28;;;8.12;nan
3082;BME280;1551;51.046;7.010;2022-11-20T15:33:39;99960.06;;;8.09;nan
3082;BME280;1551;51.046;7.010;2022-11-20T15:36:28;99969.47;;;8.04;nan
3082;BME280;1551;51.046;7.010;2022-11-20T15:39:17;99965.34;;;7.96;nan
3082;BME280;1551;51.046;7.010;2022-11-20T15:42:06;99950.03;;;7.96;nan
3082;BME280;1551;51.046;7.010;2022-11-20T15:44:55;99948.34;;;7.95;nan
3082;BME280;1551;51.046;7.010;2022-11-20T15:47:44;99950.13;;;7.90;nan
3082;BME280;1551;51.046;7.010;2022-11-20T15:50:38;99930.63;;;7.87;nan
3082;BME280;1551;51.046;7.010;2022-11-20T15:53:28;99924.72;;;7.81;nan
3082;BME280;1551;51.046;7.010;2022-11-20T15:56:17;99927.22;;;7.87;nan
3082;BME280;1551;51.046;7.010;2022-11-20T15:59:07;99919.63;;;7.85;nan
3082;BME280;1551;51.046;7.010;2022-11-20T16:01:56;99923.84;;;7.83;nan
3082;BME280;1551;51.046;7.010;2022-11-20T16:04:45;99916.31;;;7.76;nan
3082;BME280;1551;51.046;7.010;2022-11-20T16:07:34;99918.84;;;7.77;nan
3082;BME280;1551;51.046;7.010;2022-11-20T16:10:23;99919.78;;;7.70;nan
3082;BME280;1551;51.046;7.010;2022-11-20T16:13:15;99909.56;;;7.73;nan
3082;BME280;1551;51.046;7.010;2022-11-20T16:16:27;99904.47;;;7.73;nan
3082;BME280;1551;51.046;7.010;2022-11-20T16:19:17;99890.91;;;7.71;nan
3082;BME280;1551;51.046;7.010;2022-11-20T16:22:10;99882.38;;;7.72;nan
3082;BME280;1551;51.046;7.010;2022-11-20T16:24:59;99875.56;;;7.76;nan
3082;BME280;1551;51.046;7.010;2022-11-20T16:27:48;99858.69;;;7.67;nan
3082;BME280;1551;51.046;7.010;2022-11-20T16:30:38;99873.03;;;7.76;nan
3082;BME280;1551;51.046;7.010;2022-11-20T16:33:28;99873.78;;;7.82;nan
3082;BME280;1551;51.046;7.010;2022-11-20T16:36:18;99863.59;;;7.82;nan
3082;BME280;1551;51.046;7.010;2022-11-20T16:39:08;99868.63;;;7.90;nan
3082;BME280;1551;51.046;7.010;2022-11-20T16:41:57;99861.78;;;7.90;nan
3082;BME280;1551;51.046;7.010;2022-11-20T16:44:46;99850.75;;;7.91;nan
3082;BME280;1551;51.046;7.010;2022-11-20T16:47:35;99858.41;;;7.90;nan
3082;BME280;1551;51.046;7.010;2022-11-20T16:50:25;99825.53;;;7.70;nan
3082;BME280;1551;51.046;7.010;2022-11-20T16:53:14;99854.13;;;7.93;nan
3082;BME280;1551;51.046;7.010;2022-11-20T16:56:11;99859.25;;;7.90;nan
3082;BME280;1551;51.046;7.010;2022-11-20T16:59:02;99839.81;;;7.85;nan
3082;BME280;1551;51.046;7.010;2022-11-20T17:01:51;99840.59;;;7.88;nan
3082;BME280;1551;51.046;7.010;2022-11-20T17:04:40;99835.50;;;7.88;nan
3082;BME280;1551;51.046;7.010;2022-11-20T17:07:29;99824.50;;;7.86;nan